Historyczne dane pomiarowe

Dodano dane terminowe – wersja testowa.

Dane z okresu 1951-2019

Wersja bazy: 1.34 [2019-03-16, lista zmian], aktualizacja planowana na 2019-04-15

Dane meteo z obszaru Polski uzyskane na podstawie danych udostępnionych przez Instytut Meteorologii i Gospodarki Wodnej – Państwowy Instytut Badawczy.

 

Wybierz Datę:    

       

TemperaturaWilgotnośćWiatrCiśnienieOpadyŚniegCzas trwania zjawisk
 Stacja t tx tn tng RH VA  wxwx mslp ppp RRR   cm mm wxwxwxwxwxwxwx
1983-08-14 15.5 20.4 8.6- 70.8- 3.7 1.7---- 0.0------------
1983-08-13 15.1 22.4 9.0- 82.8- 5.7 5.0---- 0.0------------
1983-08-12 20.4 25.7 13.9- 73.3- 4.3 0.3---- 0.0------------
1983-08-11 19.6 22.7 14.9- 85.8- 5.3 1.3---- 7.9------------
1983-08-10 20.1 26.5 12.9- 78.3- 6.0 3.7---- 3.8------------
1983-08-09 20.6 26.7 13.8- 76.3- 3.7 1.3---- 0.0------------
1983-08-08 20.2 26.1 15.0- 81.5- 4.3 4.7---- 6.1------------
1983-08-07 20.1 26.2 14.8- 79.0- 6.7 2.3---- 0.6------------
1983-08-06 16.2 21.8 9.2- 72.3- 5.7 2.7---- 2.2------------
1983-08-05 13.5 17.5 9.9- 84.0- 7.0 1.7---- 0.0------------
1983-08-04 15.3 22.7 12.5- 86.8- 8.0 1.7---- 9.5------------
1983-08-03 21.5 28.0 14.9- 72.5- 5.0 3.7---- 0.0------------
1983-08-02 20.3 27.1 12.2- 64.8- 1.7 4.7---- 0.0------------
1983-08-01 18.6 25.0 10.2- 66.3- 0.0 2.7---- 0.0------------
1983-07-31 18.2 23.1 12.2- 61.5- 2.7 1.3---- 0.0------------
1983-07-30 16.4 21.9 13.3- 75.8- 7.7 5.0---- 0.4------------
1983-07-29 19.1 23.6 13.9- 66.5- 4.3 2.3---- 0.0------------
1983-07-28 21.0 26.3 16.9- 73.0- 4.3 2.3---- 0.0------------
1983-07-27 22.5 28.4 17.3- 68.3- 1.3 1.3---- 0.1------------
1983-07-26 19.0 25.9 12.9- 77.0- 5.3 4.0---- 0.0------------
1983-07-25 14.9 19.2 9.6- 80.3- 6.0 4.3---- 0.7------------
1983-07-24 15.0 18.2 10.8- 84.8- 6.0 1.0---- 0.0------------
1983-07-23 13.8 18.7 10.4- 87.3- 5.3 2.0---- 15.9------------
1983-07-22 14.0 17.3 9.4- 66.8- 6.7 4.3---- 3.4------------
1983-07-21 11.2 16.2 8.9- 82.5- 6.7 3.0---- 1.8------------
1983-07-20 16.5 24.8 11.7- 89.3- 7.3 3.0---- 6.0------------
1983-07-19 21.9 28.0 14.4- 60.5- 4.7 4.0---- 1.7------------
1983-07-18 19.9 26.5 10.8- 67.0- 0.7 0.7---- 0.0------------
1983-07-17 20.5 24.6 14.4- 68.8- 5.0 2.0---- 0.0------------
1983-07-16 20.2 26.6 12.4- 67.8- 2.3 1.7---- 0.0------------
1983-07-15 19.1 23.6 13.8- 68.0- 1.0 2.0---- 0.0------------
1983-07-14 18.2 22.0 16.0- 90.5- 8.0 3.3---- 9.0------------
1983-07-13 18.0 21.9 14.6- 91.5- 6.7 1.0---- 1.4------------
1983-07-12 18.1 21.9 15.3- 89.8- 7.0 2.0---- 4.3------------
1983-07-11 19.3 26.8 14.9- 80.8- 5.7 4.0---- 27.3------------
1983-07-10 21.6 27.3 15.1- 66.3- 5.0 1.7---- 0.0------------
1983-07-09 21.5 27.6 14.3- 66.8- 5.7 2.3---- 0.0------------
1983-07-08 19.5 26.5 9.5- 56.3- 1.0 1.0---- 0.0------------
1983-07-07 19.8 25.6 10.9- 51.8- 0.0 2.7---- 0.0------------
1983-07-06 19.7 26.5 10.3- 61.3- 0.0 2.0---- 0.0------------
1983-07-05 18.8 24.3 11.7- 69.8- 1.7 2.7---- 0.0------------
1983-07-04 19.5 25.0 9.9- 64.5- 2.7 0.3---- 0.0------------
1983-07-03 18.3 23.2 11.7- 65.8- 0.7 2.0---- 0.0------------
1983-07-02 19.5 23.8 15.9- 85.3- 6.7 1.3---- 0.0------------
1983-07-01 20.2 25.1 13.4- 74.8- 5.7 3.0---- 4.0------------
1983-06-30 16.8 22.7 7.3- 66.0- 1.0 2.3---- 0.0------------
1983-06-29 15.7 19.8 7.9- 56.8- 2.7 1.7---- 0.0------------
1983-06-28 17.5 22.2 15.8- 87.0- 8.0 4.0---- 4.5------------
1983-06-27 20.0 26.7 12.6- 75.3- 3.7 4.0---- 0.4------------
1983-06-26 20.2 24.6 16.1- 65.8- 5.0 2.3---- 0.0------------
1983-06-25 20.1 27.3 10.9- 58.3- 2.0 5.0---- 0.0------------
1983-06-24 16.4 24.5 5.9- 59.8- 0.0 2.3---- 0.0------------
1983-06-23 13.4 19.5 5.4- 64.5- 0.0 1.7---- 0.0------------
1983-06-22 12.1 20.2 5.7- 65.5- 0.7 3.0---- 0.0------------
1983-06-21 18.5 23.5 12.3- 63.5- 2.7 5.3---- 0.0------------
1983-06-20 18.9 23.2 14.8- 82.8- 5.7 3.0---- 0.0------------
1983-06-19 17.4 22.0 13.3- 91.8- 7.0 6.0---- 0.9------------
1983-06-18 13.6 15.9 10.4- 92.3- 8.0 5.0---- 5.8------------
1983-06-17 13.0 17.5 7.7- 73.3- 8.0 3.0---- 3.3------------
1983-06-16 12.8 16.2 10.1- 85.8- 7.3 4.0---- 0.4------------
2094.0 ms

 

Źródłem pochodzenia danych jest Instytut Meteorologii i Gospodarki Wodnej – Państwowy Instytut Badawczy. Dane Instytutu Meteorologii i Gospodarki Wodnej – Państwowego Instytutu Badawczego zostały przetworzone.

Dane źródłowe można odnaleźć na stronie https://dane.imgw.pl